• Join FlightAware (Why Join?)
  • Login
  • US Flag 
08:14PM EDT


 

Airport Tracker/Info


-or-


 

Live Flight TrackerFlight Track Log ✈ SWA3584 ✈ 14-Sep-2013 ✈ KMDW - KBWI

Flight Track Log - Related Links

Times and Time Zones

All times are in EDT time to prevent confusion due to time zone crossing. See the SWA3584 flight status page for this flight to view local times or setup timezone preferences in your user account.

Time Position Orientation Groundspeed Altitude Reporting Facility
EDT Latitude Longitude Course Direction KTS MPH feet Rate Location/Type
07:44AM 41.8000 -87.7833 54° Northeast 164 189 2,000  Level Chicago TRACON
07:45AM 41.8303 -87.7278 54° Northeast 217 250 3,300 1,560 Climbing Chicago Center
07:46AM 41.8328 -87.6444 88° East 220 253 5,200 1,920 Climbing Chicago Center
07:47AM 41.8344 -87.5589 88° East 226 260 7,200 2,340 Climbing Chicago Center
07:48AM 41.8258 -87.4556 96° East 266 306 10,000 3,120 Climbing Chicago Center
07:49AM 41.8061 -87.3439 103° East 299 344 13,600 3,240 Climbing Chicago Center
07:50AM 41.7875 -87.2156 101° East 337 388 16,600 3,300 Climbing Chicago Center
07:51AM 41.7614 -87.0508 102° East 371 427 20,400 3,300 Climbing Chicago Center
07:52AM 41.7628 -86.9028 89° East 395 455 23,400 2,580 Climbing Chicago Center
07:53AM 41.7561 -86.7461 93° East 417 480 25,700 2,160 Climbing Chicago Center
07:54AM 41.7486 -86.5750 93° East 446 513 27,900 2,040 Climbing Chicago Center
07:55AM 41.7425 -86.4014 93° East 465 535 29,900 2,160 Climbing Chicago Center
07:56AM 41.7353 -86.2236 93° East 477 549 32,300 1,500 Climbing Chicago Center
07:57AM 41.7272 -86.0467 93° East 477 549 33,000 300 Climbing Chicago Center
07:58AM 41.7197 -85.8706 93° East 474 545 33,000 1,020 Level Chicago Center
07:59AM 41.7125 -85.6942 93° East 475 547 35,100 1,860 Climbing Chicago Center
08:00AM 41.7044 -85.5258 94° East 476 548 36,900 1,860 Climbing Chicago Center
08:01AM 41.6950 -85.3586 94° East 469 540 39,000 1,800 Climbing Chicago Center
08:02AM 41.6881 -85.1600 93° East 468 539 40,600 960 Climbing Chicago Center
08:03AM 41.6783 -84.9914 94° East 459 528 41,000 180 Climbing Chicago Center
08:04AM 41.6689 -84.8222 94° East 456 525 41,000  Level Chicago Center
08:05AM 41.6603 -84.6519 94° East 459 528 41,000  Level Chicago Center
08:06AM 41.6264 -84.5161 108° East 486 559 41,000  Level Cleveland Center
08:07AM 41.5547 -84.3247 117° Southeast 481 554 41,000  Level Cleveland Center
08:08AM 41.5025 -84.1861 117° Southeast 483 556 41,000  Level Cleveland Center
08:09AM 41.4433 -84.0275 116° Southeast 482 555 41,000  Level Cleveland Center
08:10AM 41.3728 -83.8381 116° Southeast 481 554 41,000  Level Cleveland Center
08:11AM 41.3139 -83.6822 117° Southeast 475 547 41,000  Level Cleveland Center
08:12AM 41.2539 -83.5261 117° Southeast 477 549 41,000  Level Cleveland Center
08:13AM 41.1947 -83.3664 116° Southeast 482 555 41,000  Level Cleveland Center
08:14AM 41.1825 -83.3353 118° Southeast 482 555 41,000  Level Cleveland Center
08:15AM 41.1183 -83.1667 117° Southeast 476 548 41,000  Level Cleveland Center
08:16AM 41.0581 -83.0089 117° Southeast 477 549 41,000  Level Cleveland Center
08:17AM 40.9983 -82.8522 117° Southeast 475 547 41,000  Level Cleveland Center
08:18AM 40.9383 -82.6967 117° Southeast 474 545 41,000  Level Cleveland Center
08:19AM 40.8778 -82.5417 117° Southeast 472 543 41,000  Level Cleveland Center
08:20AM 40.8161 -82.3853 117° Southeast 478 550 41,000  Level Cleveland Center
08:21AM 40.7556 -82.2283 117° Southeast 477 549 41,000  Level Cleveland Center
08:22AM 40.6928 -82.0719 118° Southeast 481 554 41,000  Level Cleveland Center
08:23AM 40.6306 -81.9156 118° Southeast 480 552 41,000  Level Cleveland Center
08:23AM 40.5889 -81.8125 118° Southeast 481 554 41,000  Level Indianapolis Center
08:24AM 40.5258 -81.6564 118° Southeast 482 555 41,000  Level Indianapolis Center
08:25AM 40.4642 -81.5017 118° Southeast 478 550 41,000  Level Indianapolis Center
08:26AM 40.4014 -81.3464 118° Southeast 480 552 41,000  Level Indianapolis Center
08:27AM 40.3375 -81.1914 118° Southeast 480 552 41,000  Level Indianapolis Center
08:28AM 40.2636 -81.0114 118° Southeast 480 552 41,000  Level Indianapolis Center
08:29AM 40.1997 -80.8569 118° Southeast 479 551 41,000  Level Indianapolis Center
08:30AM 40.1367 -80.7011 118° Southeast 482 555 41,000  Level Indianapolis Center
08:31AM 40.0714 -80.5461 119° Southeast 483 556 41,000 -300 Level Indianapolis Center
08:33AM 40.0044 -80.3844 118° Southeast 488 562 40,400 -840 Descending Indianapolis Center
08:34AM 39.9397 -80.2314 119° Southeast 483 556 39,400 -960 Descending Indianapolis Center
08:35AM 39.8742 -80.0756 119° Southeast 488 562 38,500 -960 Descending Indianapolis Center
08:36AM 39.8319 -79.9117 108° East 480 552 37,500 -1,140 Descending Indianapolis Center
08:37AM 39.7983 -79.7447 105° East 478 550 36,200 -2,340 Descending Indianapolis Center
08:38AM 39.7636 -79.5775 105° East 478 550 32,800 -3,120 Descending Indianapolis Center
08:39AM 39.7283 -79.4122 105° East 475 547 29,900 -2,580 Descending Indianapolis Center
08:40AM 39.6961 -79.2403 104° East 470 541 27,300 -2,280 Descending Washington Center
08:41AM 39.6650 -79.0906 105° East 448 516 25,100 -1,440 Descending Washington Center
08:42AM 39.6336 -78.9461 106° East 426 490 24,400 -840 Descending Washington Center
08:43AM 39.5942 -78.7936 109° East 426 490 23,400 -1,020 Descending Washington Center
08:44AM 39.5625 -78.6414 105° East 426 490 22,400 -1,140 Descending Washington Center
08:45AM 39.5286 -78.4947 107° East 426 490 21,200 -1,740 Descending Washington Center
08:46AM 39.4986 -78.3536 105° East 426 490 18,900 -2,400 Descending Washington Center
08:47AM 39.4683 -78.2153 106° East 411 473 16,400 -2,160 Descending Washington Center
08:48AM 39.4483 -78.0775 101° East 401 461 14,700 -1,380 Descending Washington Center
08:49AM 39.4489 -77.9458 90° East 388 447 13,700 -1,080 Descending Washington Center
08:50AM 39.4472 -77.8142 91° East 371 427 12,600 -1,080 Descending Washington Center
08:51AM 39.4475 -77.6850 90° East 366 421 11,600 -840 Descending Washington Center
08:52AM 39.4453 -77.5642 91° East 349 402 11,000 -300 Descending Washington Center
08:53AM 39.4472 -77.4567 89° East 324 373 11,100  Climbing Washington Center
08:54AM 39.4500 -77.3500 88° East 292 336 11,100 -60 Level Potomac TRACON
08:55AM 39.4667 -77.2500 78° East 289 333 11,000 -540 Descending Potomac TRACON
08:56AM 39.4667 -77.1500 90° East 292 336 10,100 -960 Descending Potomac TRACON
08:57AM 39.4500 -77.0500 102° East 285 328 9,200 -1,020 Descending Potomac TRACON
08:58AM 39.4500 -76.9500 90° East 284 327 8,200 -1,020 Descending Potomac TRACON
08:59AM 39.4500 -76.8500 90° East 278 320 7,200 -960 Descending Potomac TRACON
08:59AM 39.4500 -76.7667 90° East 272 313 6,400 -960 Descending Potomac TRACON
09:00AM 39.4500 -76.6667 90° East 263 303 5,400 -840 Descending Potomac TRACON
09:01AM 39.4167 -76.6000 123° Southeast 275 316 4,800 -720 Descending Potomac TRACON
09:03AM 39.3333 -76.5667 163° South 278 320 3,900 -900 Descending Potomac TRACON
09:03AM 39.2667 -76.5333 159° South 272 313 3,000 -720 Descending Potomac TRACON
09:04AM 39.2000 -76.5167 169° South 259 298 2,600 -540 Descending Potomac TRACON
09:06AM 39.1500 -76.5667 218° Southwest 199 229 1,900 -600 Descending Potomac TRACON
09:06AM 39.1333 -76.6167 247° West 157 181 1,400 -720 Descending Potomac TRACON
09:07AM 39.1500 -76.6500 303° West 127 146 600 -840 Descending Potomac TRACON
09:09AM 39.1667 -76.6667 282° West  Level FlightAware Approximate
09:16AM 39.1754 -76.6683 282° West  Level Estimated